Washington, Colorado
Current Conditions -  °F | °C
As of 4:52 AM on Sunday 25 Jan 2015 (Local Time) from KALS Reporting Station
Clear Clear  
Wind Chill: -2°   Ceiling: Unl
Heat Index:   Visibility: 10mi
Dew Point:   Wind: 7mph
Humidity: 80%   Direction: 280°W
Pressure: 30.28"   Gusts: NA
Location:  37.469°N, 105.836°W
Report Text: KALS 251152Z AUTO 28006KT 10SM CLR M13/M16 A3028 RMK AO2 SLP299 T11281156 11117 21156 55000
Loading
Personal Weather Stations






























Interactive Weather Map New forecast layout! Learn more

10-Day Weather Forecast

Advertisements
Track Severe Weather on mobile